sensor_id;sensor_type;location;lat;lon;timestamp;P1;durP1;ratioP1;P2;durP2;ratioP2
47529;SDS011;33272;51.922;7.730;2023-07-24T00:01:28;4.27;;;2.70;;
47529;SDS011;33272;51.922;7.730;2023-07-24T00:03:55;4.83;;;2.83;;
47529;SDS011;33272;51.922;7.730;2023-07-24T00:06:24;3.87;;;2.97;;
47529;SDS011;33272;51.922;7.730;2023-07-24T00:08:51;3.27;;;2.57;;
47529;SDS011;33272;51.922;7.730;2023-07-24T00:11:18;5.00;;;3.00;;
47529;SDS011;33272;51.922;7.730;2023-07-24T00:13:45;4.10;;;3.07;;
47529;SDS011;33272;51.922;7.730;2023-07-24T00:16:13;3.47;;;2.50;;
47529;SDS011;33272;51.922;7.730;2023-07-24T00:18:40;3.70;;;2.90;;
47529;SDS011;33272;51.922;7.730;2023-07-24T00:21:07;3.90;;;2.90;;
47529;SDS011;33272;51.922;7.730;2023-07-24T00:23:35;4.07;;;3.00;;
47529;SDS011;33272;51.922;7.730;2023-07-24T00:26:02;4.60;;;3.20;;
47529;SDS011;33272;51.922;7.730;2023-07-24T00:28:29;3.37;;;2.93;;
47529;SDS011;33272;51.922;7.730;2023-07-24T00:30:56;4.40;;;3.27;;
47529;SDS011;33272;51.922;7.730;2023-07-24T00:33:25;3.40;;;3.00;;
47529;SDS011;33272;51.922;7.730;2023-07-24T00:35:54;4.63;;;3.20;;
47529;SDS011;33272;51.922;7.730;2023-07-24T00:38:23;3.77;;;2.93;;
47529;SDS011;33272;51.922;7.730;2023-07-24T00:40:50;3.33;;;2.73;;
47529;SDS011;33272;51.922;7.730;2023-07-24T00:43:17;5.07;;;2.70;;
47529;SDS011;33272;51.922;7.730;2023-07-24T00:45:44;3.17;;;2.80;;
47529;SDS011;33272;51.922;7.730;2023-07-24T00:48:13;4.70;;;2.83;;
47529;SDS011;33272;51.922;7.730;2023-07-24T00:50:42;3.67;;;2.73;;
47529;SDS011;33272;51.922;7.730;2023-07-24T00:53:10;4.47;;;2.73;;
47529;SDS011;33272;51.922;7.730;2023-07-24T00:55:39;5.50;;;2.67;;
47529;SDS011;33272;51.922;7.730;2023-07-24T00:58:06;3.63;;;2.57;;
47529;SDS011;33272;51.922;7.730;2023-07-24T01:00:36;4.20;;;2.90;;
47529;SDS011;33272;51.922;7.730;2023-07-24T01:03:04;3.97;;;3.07;;
47529;SDS011;33272;51.922;7.730;2023-07-24T01:05:31;3.03;;;2.67;;
47529;SDS011;33272;51.922;7.730;2023-07-24T01:08:00;3.23;;;2.40;;
47529;SDS011;33272;51.922;7.730;2023-07-24T01:10:27;3.70;;;2.50;;
47529;SDS011;33272;51.922;7.730;2023-07-24T01:12:56;3.47;;;2.80;;
47529;SDS011;33272;51.922;7.730;2023-07-24T01:15:29;3.67;;;2.60;;
47529;SDS011;33272;51.922;7.730;2023-07-24T01:17:59;4.77;;;2.70;;
47529;SDS011;33272;51.922;7.730;2023-07-24T01:20:32;3.27;;;2.60;;
47529;SDS011;33272;51.922;7.730;2023-07-24T01:23:08;4.80;;;3.07;;
47529;SDS011;33272;51.922;7.730;2023-07-24T01:25:53;5.77;;;2.83;;
47529;SDS011;33272;51.922;7.730;2023-07-24T01:28:21;3.20;;;2.20;;
47529;SDS011;33272;51.922;7.730;2023-07-24T01:30:49;4.17;;;2.73;;
47529;SDS011;33272;51.922;7.730;2023-07-24T01:33:16;4.27;;;2.30;;
47529;SDS011;33272;51.922;7.730;2023-07-24T01:35:43;3.00;;;2.70;;
47529;SDS011;33272;51.922;7.730;2023-07-24T01:38:11;2.97;;;2.60;;
47529;SDS011;33272;51.922;7.730;2023-07-24T01:40:39;3.20;;;2.47;;
47529;SDS011;33272;51.922;7.730;2023-07-24T01:43:08;4.97;;;2.80;;
47529;SDS011;33272;51.922;7.730;2023-07-24T01:45:35;2.87;;;2.37;;
47529;SDS011;33272;51.922;7.730;2023-07-24T01:48:03;3.93;;;2.60;;
47529;SDS011;33272;51.922;7.730;2023-07-24T01:50:30;5.70;;;3.07;;
47529;SDS011;33272;51.922;7.730;2023-07-24T01:52:57;3.03;;;2.40;;
47529;SDS011;33272;51.922;7.730;2023-07-24T01:55:25;5.27;;;2.53;;
47529;SDS011;33272;51.922;7.730;2023-07-24T01:57:52;4.27;;;2.57;;
47529;SDS011;33272;51.922;7.730;2023-07-24T02:00:20;2.80;;;2.53;;
47529;SDS011;33272;51.922;7.730;2023-07-24T02:02:47;3.53;;;2.73;;
47529;SDS011;33272;51.922;7.730;2023-07-24T02:05:14;5.90;;;3.00;;
47529;SDS011;33272;51.922;7.730;2023-07-24T02:07:41;3.63;;;2.77;;
47529;SDS011;33272;51.922;7.730;2023-07-24T02:10:08;3.00;;;2.30;;
47529;SDS011;33272;51.922;7.730;2023-07-24T02:12:36;3.33;;;2.67;;
47529;SDS011;33272;51.922;7.730;2023-07-24T02:15:03;3.33;;;2.57;;
47529;SDS011;33272;51.922;7.730;2023-07-24T02:17:33;4.47;;;2.40;;
47529;SDS011;33272;51.922;7.730;2023-07-24T02:20:00;3.27;;;2.33;;
47529;SDS011;33272;51.922;7.730;2023-07-24T02:22:27;5.03;;;2.90;;
47529;SDS011;33272;51.922;7.730;2023-07-24T02:24:54;4.67;;;3.37;;
47529;SDS011;33272;51.922;7.730;2023-07-24T02:27:25;3.77;;;2.90;;
47529;SDS011;33272;51.922;7.730;2023-07-24T02:29:53;3.70;;;2.47;;
47529;SDS011;33272;51.922;7.730;2023-07-24T02:32:20;8.63;;;3.30;;
47529;SDS011;33272;51.922;7.730;2023-07-24T02:34:49;7.87;;;2.83;;
47529;SDS011;33272;51.922;7.730;2023-07-24T02:37:17;5.30;;;3.20;;
47529;SDS011;33272;51.922;7.730;2023-07-24T02:39:44;3.50;;;2.60;;
47529;SDS011;33272;51.922;7.730;2023-07-24T02:42:12;4.57;;;3.00;;
47529;SDS011;33272;51.922;7.730;2023-07-24T02:44:39;6.00;;;2.90;;
47529;SDS011;33272;51.922;7.730;2023-07-24T02:47:06;4.83;;;3.37;;
47529;SDS011;33272;51.922;7.730;2023-07-24T02:49:33;8.43;;;3.80;;
47529;SDS011;33272;51.922;7.730;2023-07-24T02:52:01;4.20;;;3.10;;
47529;SDS011;33272;51.922;7.730;2023-07-24T02:54:29;4.13;;;3.07;;
47529;SDS011;33272;51.922;7.730;2023-07-24T02:56:56;4.83;;;3.20;;
47529;SDS011;33272;51.922;7.730;2023-07-24T02:59:23;4.60;;;3.37;;
47529;SDS011;33272;51.922;7.730;2023-07-24T03:01:50;4.47;;;3.57;;
47529;SDS011;33272;51.922;7.730;2023-07-24T03:04:17;5.80;;;3.23;;
47529;SDS011;33272;51.922;7.730;2023-07-24T03:06:44;5.90;;;3.80;;
47529;SDS011;33272;51.922;7.730;2023-07-24T03:09:13;6.60;;;3.60;;
47529;SDS011;33272;51.922;7.730;2023-07-24T03:11:40;5.73;;;3.70;;
47529;SDS011;33272;51.922;7.730;2023-07-24T03:14:07;5.63;;;3.37;;
47529;SDS011;33272;51.922;7.730;2023-07-24T03:16:34;7.33;;;3.93;;
47529;SDS011;33272;51.922;7.730;2023-07-24T03:19:01;6.07;;;3.40;;
47529;SDS011;33272;51.922;7.730;2023-07-24T03:21:28;5.13;;;3.90;;
47529;SDS011;33272;51.922;7.730;2023-07-24T03:23:55;6.90;;;3.73;;
47529;SDS011;33272;51.922;7.730;2023-07-24T03:26:23;4.70;;;4.00;;
47529;SDS011;33272;51.922;7.730;2023-07-24T03:28:50;6.13;;;3.63;;
47529;SDS011;33272;51.922;7.730;2023-07-24T03:31:17;7.17;;;3.73;;
47529;SDS011;33272;51.922;7.730;2023-07-24T03:33:44;6.80;;;3.90;;
47529;SDS011;33272;51.922;7.730;2023-07-24T03:36:11;4.77;;;3.77;;
47529;SDS011;33272;51.922;7.730;2023-07-24T03:38:38;5.33;;;3.97;;
47529;SDS011;33272;51.922;7.730;2023-07-24T03:41:05;5.07;;;3.90;;
47529;SDS011;33272;51.922;7.730;2023-07-24T03:43:34;6.10;;;3.70;;
47529;SDS011;33272;51.922;7.730;2023-07-24T03:46:01;5.47;;;3.57;;
47529;SDS011;33272;51.922;7.730;2023-07-24T03:48:29;4.43;;;3.67;;
47529;SDS011;33272;51.922;7.730;2023-07-24T03:50:57;6.27;;;3.73;;
47529;SDS011;33272;51.922;7.730;2023-07-24T03:53:26;4.83;;;3.20;;
47529;SDS011;33272;51.922;7.730;2023-07-24T03:55:53;5.97;;;3.70;;
47529;SDS011;33272;51.922;7.730;2023-07-24T03:58:20;4.67;;;3.00;;
47529;SDS011;33272;51.922;7.730;2023-07-24T04:00:49;4.10;;;3.27;;
47529;SDS011;33272;51.922;7.730;2023-07-24T04:03:16;4.00;;;3.33;;
47529;SDS011;33272;51.922;7.730;2023-07-24T04:05:43;5.27;;;3.23;;
47529;SDS011;33272;51.922;7.730;2023-07-24T04:08:10;4.57;;;3.53;;
47529;SDS011;33272;51.922;7.730;2023-07-24T04:10:37;5.70;;;3.57;;
47529;SDS011;33272;51.922;7.730;2023-07-24T04:13:04;5.10;;;2.83;;
47529;SDS011;33272;51.922;7.730;2023-07-24T04:15:31;6.60;;;3.80;;
47529;SDS011;33272;51.922;7.730;2023-07-24T04:18:00;6.33;;;3.87;;
47529;SDS011;33272;51.922;7.730;2023-07-24T04:20:27;4.57;;;3.33;;
47529;SDS011;33272;51.922;7.730;2023-07-24T04:22:54;5.17;;;3.33;;
47529;SDS011;33272;51.922;7.730;2023-07-24T04:25:21;8.13;;;3.83;;
47529;SDS011;33272;51.922;7.730;2023-07-24T04:27:48;6.37;;;3.30;;
47529;SDS011;33272;51.922;7.730;2023-07-24T04:30:15;5.67;;;3.07;;
47529;SDS011;33272;51.922;7.730;2023-07-24T04:32:42;6.43;;;3.60;;
47529;SDS011;33272;51.922;7.730;2023-07-24T04:35:12;5.13;;;3.73;;
47529;SDS011;33272;51.922;7.730;2023-07-24T04:37:39;5.33;;;3.87;;
47529;SDS011;33272;51.922;7.730;2023-07-24T04:40:06;6.63;;;2.93;;
47529;SDS011;33272;51.922;7.730;2023-07-24T04:42:35;7.20;;;4.17;;
47529;SDS011;33272;51.922;7.730;2023-07-24T04:45:02;4.83;;;3.53;;
47529;SDS011;33272;51.922;7.730;2023-07-24T04:47:30;5.10;;;3.60;;
47529;SDS011;33272;51.922;7.730;2023-07-24T04:49:57;5.40;;;3.70;;
47529;SDS011;33272;51.922;7.730;2023-07-24T04:52:26;5.77;;;3.27;;
47529;SDS011;33272;51.922;7.730;2023-07-24T04:54:53;7.33;;;4.03;;
47529;SDS011;33272;51.922;7.730;2023-07-24T04:57:20;4.20;;;3.80;;
47529;SDS011;33272;51.922;7.730;2023-07-24T04:59:47;4.70;;;3.70;;
47529;SDS011;33272;51.922;7.730;2023-07-24T05:02:14;6.90;;;3.47;;
47529;SDS011;33272;51.922;7.730;2023-07-24T05:04:41;8.17;;;4.17;;
47529;SDS011;33272;51.922;7.730;2023-07-24T05:07:08;5.73;;;3.87;;
47529;SDS011;33272;51.922;7.730;2023-07-24T05:09:36;6.57;;;3.80;;
47529;SDS011;33272;51.922;7.730;2023-07-24T05:12:04;7.50;;;4.20;;
47529;SDS011;33272;51.922;7.730;2023-07-24T05:14:32;5.43;;;3.50;;
47529;SDS011;33272;51.922;7.730;2023-07-24T05:16:59;10.90;;;4.13;;
47529;SDS011;33272;51.922;7.730;2023-07-24T05:19:26;4.50;;;3.17;;
47529;SDS011;33272;51.922;7.730;2023-07-24T05:21:53;4.47;;;2.97;;
47529;SDS011;33272;51.922;7.730;2023-07-24T05:24:20;5.43;;;2.93;;
47529;SDS011;33272;51.922;7.730;2023-07-24T05:26:48;8.23;;;3.10;;
47529;SDS011;33272;51.922;7.730;2023-07-24T05:29:15;8.93;;;3.47;;
47529;SDS011;33272;51.922;7.730;2023-07-24T05:31:45;4.33;;;2.93;;
47529;SDS011;33272;51.922;7.730;2023-07-24T05:34:13;5.73;;;3.17;;
47529;SDS011;33272;51.922;7.730;2023-07-24T05:36:40;4.50;;;3.13;;
47529;SDS011;33272;51.922;7.730;2023-07-24T05:39:07;5.10;;;3.73;;
47529;SDS011;33272;51.922;7.730;2023-07-24T05:41:34;5.67;;;4.27;;
47529;SDS011;33272;51.922;7.730;2023-07-24T05:44:02;6.50;;;3.30;;
47529;SDS011;33272;51.922;7.730;2023-07-24T05:46:30;5.00;;;3.53;;
47529;SDS011;33272;51.922;7.730;2023-07-24T05:48:57;4.93;;;3.10;;
47529;SDS011;33272;51.922;7.730;2023-07-24T05:51:25;5.13;;;3.73;;
47529;SDS011;33272;51.922;7.730;2023-07-24T05:53:52;5.37;;;3.70;;
47529;SDS011;33272;51.922;7.730;2023-07-24T05:56:19;4.50;;;3.17;;
47529;SDS011;33272;51.922;7.730;2023-07-24T05:58:46;5.27;;;3.53;;
47529;SDS011;33272;51.922;7.730;2023-07-24T06:01:15;4.47;;;3.83;;
47529;SDS011;33272;51.922;7.730;2023-07-24T06:03:41;4.87;;;3.70;;
47529;SDS011;33272;51.922;7.730;2023-07-24T06:06:08;4.93;;;3.57;;
47529;SDS011;33272;51.922;7.730;2023-07-24T06:08:35;5.63;;;3.53;;
47529;SDS011;33272;51.922;7.730;2023-07-24T06:11:02;4.27;;;3.50;;
47529;SDS011;33272;51.922;7.730;2023-07-24T06:13:29;6.00;;;3.80;;
47529;SDS011;33272;51.922;7.730;2023-07-24T06:15:56;5.87;;;3.47;;
47529;SDS011;33272;51.922;7.730;2023-07-24T06:18:25;4.43;;;3.47;;
47529;SDS011;33272;51.922;7.730;2023-07-24T06:20:52;6.20;;;3.77;;
47529;SDS011;33272;51.922;7.730;2023-07-24T06:23:19;5.70;;;4.60;;
47529;SDS011;33272;51.922;7.730;2023-07-24T06:25:46;7.47;;;4.67;;
47529;SDS011;33272;51.922;7.730;2023-07-24T06:28:13;7.63;;;4.17;;
47529;SDS011;33272;51.922;7.730;2023-07-24T06:30:40;6.50;;;4.43;;
47529;SDS011;33272;51.922;7.730;2023-07-24T06:33:07;4.73;;;4.20;;
47529;SDS011;33272;51.922;7.730;2023-07-24T06:35:35;5.67;;;4.17;;
47529;SDS011;33272;51.922;7.730;2023-07-24T06:38:03;5.10;;;4.27;;
47529;SDS011;33272;51.922;7.730;2023-07-24T06:40:30;5.63;;;4.60;;
47529;SDS011;33272;51.922;7.730;2023-07-24T06:42:57;6.70;;;4.77;;
47529;SDS011;33272;51.922;7.730;2023-07-24T06:45:24;5.53;;;4.97;;
47529;SDS011;33272;51.922;7.730;2023-07-24T06:47:51;7.30;;;4.97;;
47529;SDS011;33272;51.922;7.730;2023-07-24T06:50:18;8.87;;;6.03;;
47529;SDS011;33272;51.922;7.730;2023-07-24T06:52:46;6.13;;;5.33;;
47529;SDS011;33272;51.922;7.730;2023-07-24T06:55:16;6.13;;;5.27;;
47529;SDS011;33272;51.922;7.730;2023-07-24T06:57:43;5.73;;;5.10;;
47529;SDS011;33272;51.922;7.730;2023-07-24T07:00:10;5.90;;;4.70;;
47529;SDS011;33272;51.922;7.730;2023-07-24T07:02:38;5.40;;;4.87;;
47529;SDS011;33272;51.922;7.730;2023-07-24T07:05:06;6.60;;;4.50;;
47529;SDS011;33272;51.922;7.730;2023-07-24T07:07:33;7.67;;;5.17;;
47529;SDS011;33272;51.922;7.730;2023-07-24T07:10:01;7.80;;;4.50;;
47529;SDS011;33272;51.922;7.730;2023-07-24T07:12:30;7.40;;;4.80;;
47529;SDS011;33272;51.922;7.730;2023-07-24T07:14:57;6.73;;;4.40;;
47529;SDS011;33272;51.922;7.730;2023-07-24T07:17:24;6.30;;;5.07;;
47529;SDS011;33272;51.922;7.730;2023-07-24T07:19:51;5.20;;;4.70;;
47529;SDS011;33272;51.922;7.730;2023-07-24T07:22:18;5.97;;;4.50;;
47529;SDS011;33272;51.922;7.730;2023-07-24T07:24:45;9.23;;;5.30;;
47529;SDS011;33272;51.922;7.730;2023-07-24T07:27:14;6.37;;;5.40;;
47529;SDS011;33272;51.922;7.730;2023-07-24T07:29:42;5.37;;;4.87;;
47529;SDS011;33272;51.922;7.730;2023-07-24T07:32:09;10.13;;;5.40;;
47529;SDS011;33272;51.922;7.730;2023-07-24T07:34:36;6.17;;;5.13;;
47529;SDS011;33272;51.922;7.730;2023-07-24T07:37:03;7.70;;;5.53;;
47529;SDS011;33272;51.922;7.730;2023-07-24T07:39:31;8.33;;;5.33;;
47529;SDS011;33272;51.922;7.730;2023-07-24T07:41:58;6.10;;;5.50;;
47529;SDS011;33272;51.922;7.730;2023-07-24T07:44:26;7.33;;;5.20;;
47529;SDS011;33272;51.922;7.730;2023-07-24T07:46:53;6.10;;;5.00;;
47529;SDS011;33272;51.922;7.730;2023-07-24T07:49:20;6.10;;;4.73;;
47529;SDS011;33272;51.922;7.730;2023-07-24T07:51:47;7.30;;;5.03;;
47529;SDS011;33272;51.922;7.730;2023-07-24T07:54:14;6.50;;;4.93;;
47529;SDS011;33272;51.922;7.730;2023-07-24T07:56:41;6.33;;;4.83;;
47529;SDS011;33272;51.922;7.730;2023-07-24T07:59:09;7.83;;;5.40;;
47529;SDS011;33272;51.922;7.730;2023-07-24T08:01:37;7.27;;;5.00;;
47529;SDS011;33272;51.922;7.730;2023-07-24T08:04:05;6.90;;;5.33;;
47529;SDS011;33272;51.922;7.730;2023-07-24T08:06:32;7.60;;;6.00;;
47529;SDS011;33272;51.922;7.730;2023-07-24T08:08:59;7.20;;;5.43;;
47529;SDS011;33272;51.922;7.730;2023-07-24T08:11:26;5.83;;;5.20;;
47529;SDS011;33272;51.922;7.730;2023-07-24T08:13:53;6.40;;;5.40;;
47529;SDS011;33272;51.922;7.730;2023-07-24T08:16:20;7.50;;;5.37;;
47529;SDS011;33272;51.922;7.730;2023-07-24T08:18:48;8.33;;;5.53;;
47529;SDS011;33272;51.922;7.730;2023-07-24T08:21:16;7.43;;;5.30;;
47529;SDS011;33272;51.922;7.730;2023-07-24T08:23:43;5.33;;;4.57;;
47529;SDS011;33272;51.922;7.730;2023-07-24T08:26:10;6.00;;;4.30;;
47529;SDS011;33272;51.922;7.730;2023-07-24T08:28:37;4.73;;;4.13;;
47529;SDS011;33272;51.922;7.730;2023-07-24T08:31:07;4.10;;;3.70;;
47529;SDS011;33272;51.922;7.730;2023-07-24T08:33:34;4.20;;;3.60;;
47529;SDS011;33272;51.922;7.730;2023-07-24T08:36:03;3.33;;;3.03;;
47529;SDS011;33272;51.922;7.730;2023-07-24T08:38:31;3.57;;;2.33;;
47529;SDS011;33272;51.922;7.730;2023-07-24T08:41:02;4.83;;;2.70;;
47529;SDS011;33272;51.922;7.730;2023-07-24T08:43:31;2.90;;;2.10;;
47529;SDS011;33272;51.922;7.730;2023-07-24T08:46:00;5.30;;;2.57;;
47529;SDS011;33272;51.922;7.730;2023-07-24T08:48:29;2.50;;;2.30;;
47529;SDS011;33272;51.922;7.730;2023-07-24T08:51:00;4.77;;;2.47;;
47529;SDS011;33272;51.922;7.730;2023-07-24T08:53:30;2.23;;;2.03;;
47529;SDS011;33272;51.922;7.730;2023-07-24T08:56:00;2.53;;;2.33;;
47529;SDS011;33272;51.922;7.730;2023-07-24T08:58:29;2.60;;;2.00;;
47529;SDS011;33272;51.922;7.730;2023-07-24T09:00:56;2.27;;;2.07;;
47529;SDS011;33272;51.922;7.730;2023-07-24T09:03:24;3.30;;;2.50;;
47529;SDS011;33272;51.922;7.730;2023-07-24T09:05:52;4.03;;;2.47;;
47529;SDS011;33272;51.922;7.730;2023-07-24T09:08:29;3.50;;;2.10;;
47529;SDS011;33272;51.922;7.730;2023-07-24T09:10:57;2.63;;;2.07;;
47529;SDS011;33272;51.922;7.730;2023-07-24T09:13:24;2.00;;;1.80;;
47529;SDS011;33272;51.922;7.730;2023-07-24T09:15:51;2.50;;;1.80;;
47529;SDS011;33272;51.922;7.730;2023-07-24T09:18:19;2.33;;;2.13;;
47529;SDS011;33272;51.922;7.730;2023-07-24T09:20:46;1.63;;;1.53;;
47529;SDS011;33272;51.922;7.730;2023-07-24T09:23:13;1.87;;;1.40;;
47529;SDS011;33272;51.922;7.730;2023-07-24T09:25:43;1.60;;;1.50;;
47529;SDS011;33272;51.922;7.730;2023-07-24T09:28:11;1.60;;;1.50;;
47529;SDS011;33272;51.922;7.730;2023-07-24T09:30:39;1.50;;;1.40;;
47529;SDS011;33272;51.922;7.730;2023-07-24T09:33:09;3.13;;;1.87;;
47529;SDS011;33272;51.922;7.730;2023-07-24T09:35:36;1.50;;;1.40;;
47529;SDS011;33272;51.922;7.730;2023-07-24T09:38:03;1.70;;;1.30;;
47529;SDS011;33272;51.922;7.730;2023-07-24T09:40:39;1.50;;;1.40;;
47529;SDS011;33272;51.922;7.730;2023-07-24T09:43:16;1.50;;;1.40;;
47529;SDS011;33272;51.922;7.730;2023-07-24T09:45:44;1.47;;;1.37;;
47529;SDS011;33272;51.922;7.730;2023-07-24T09:48:13;1.70;;;1.40;;
47529;SDS011;33272;51.922;7.730;2023-07-24T09:50:42;2.33;;;1.60;;
47529;SDS011;33272;51.922;7.730;2023-07-24T09:53:13;2.00;;;1.40;;
47529;SDS011;33272;51.922;7.730;2023-07-24T09:55:47;2.17;;;1.70;;
47529;SDS011;33272;51.922;7.730;2023-07-24T09:58:23;1.63;;;1.53;;
47529;SDS011;33272;51.922;7.730;2023-07-24T10:00:51;1.53;;;1.43;;
47529;SDS011;33272;51.922;7.730;2023-07-24T10:03:19;1.70;;;1.60;;
47529;SDS011;33272;51.922;7.730;2023-07-24T10:05:47;1.90;;;1.80;;
47529;SDS011;33272;51.922;7.730;2023-07-24T10:08:15;2.07;;;1.87;;
47529;SDS011;33272;51.922;7.730;2023-07-24T10:10:44;1.93;;;1.60;;
47529;SDS011;33272;51.922;7.730;2023-07-24T10:13:12;2.27;;;1.83;;
47529;SDS011;33272;51.922;7.730;2023-07-24T10:15:41;2.57;;;1.70;;
47529;SDS011;33272;51.922;7.730;2023-07-24T10:18:09;2.13;;;1.93;;
47529;SDS011;33272;51.922;7.730;2023-07-24T10:20:37;3.23;;;1.83;;
47529;SDS011;33272;51.922;7.730;2023-07-24T10:23:06;2.57;;;2.13;;
47529;SDS011;33272;51.922;7.730;2023-07-24T10:25:35;2.07;;;1.90;;
47529;SDS011;33272;51.922;7.730;2023-07-24T10:28:06;2.13;;;1.83;;
47529;SDS011;33272;51.922;7.730;2023-07-24T10:30:36;1.90;;;1.70;;
47529;SDS011;33272;51.922;7.730;2023-07-24T10:33:05;2.90;;;2.30;;
47529;SDS011;33272;51.922;7.730;2023-07-24T10:35:38;2.00;;;1.80;;
47529;SDS011;33272;51.922;7.730;2023-07-24T10:38:07;2.60;;;1.70;;
47529;SDS011;33272;51.922;7.730;2023-07-24T10:40:34;1.77;;;1.67;;
47529;SDS011;33272;51.922;7.730;2023-07-24T10:43:04;1.90;;;1.70;;
47529;SDS011;33272;51.922;7.730;2023-07-24T10:45:40;2.00;;;1.50;;
47529;SDS011;33272;51.922;7.730;2023-07-24T10:48:09;2.20;;;1.90;;
47529;SDS011;33272;51.922;7.730;2023-07-24T10:50:38;2.27;;;1.60;;
47529;SDS011;33272;51.922;7.730;2023-07-24T10:53:06;2.00;;;1.60;;
47529;SDS011;33272;51.922;7.730;2023-07-24T10:55:34;1.73;;;1.53;;
47529;SDS011;33272;51.922;7.730;2023-07-24T10:58:00;2.27;;;2.07;;
47529;SDS011;33272;51.922;7.730;2023-07-24T11:00:27;2.40;;;2.10;;
47529;SDS011;33272;51.922;7.730;2023-07-24T11:02:54;2.17;;;1.97;;
47529;SDS011;33272;51.922;7.730;2023-07-24T11:05:23;2.90;;;2.33;;
47529;SDS011;33272;51.922;7.730;2023-07-24T11:07:50;2.80;;;1.90;;
47529;SDS011;33272;51.922;7.730;2023-07-24T11:10:21;3.43;;;1.80;;
47529;SDS011;33272;51.922;7.730;2023-07-24T11:12:56;2.60;;;1.90;;
47529;SDS011;33272;51.922;7.730;2023-07-24T11:15:26;1.60;;;1.50;;
47529;SDS011;33272;51.922;7.730;2023-07-24T11:17:53;2.03;;;1.80;;
47529;SDS011;33272;51.922;7.730;2023-07-24T11:20:20;2.93;;;1.80;;
47529;SDS011;33272;51.922;7.730;2023-07-24T11:22:49;2.13;;;1.83;;
47529;SDS011;33272;51.922;7.730;2023-07-24T11:25:16;2.27;;;1.80;;
47529;SDS011;33272;51.922;7.730;2023-07-24T11:27:43;2.40;;;1.87;;
47529;SDS011;33272;51.922;7.730;2023-07-24T11:30:12;2.00;;;1.73;;
47529;SDS011;33272;51.922;7.730;2023-07-24T11:32:45;2.20;;;2.00;;
47529;SDS011;33272;51.922;7.730;2023-07-24T11:35:12;4.27;;;2.10;;
47529;SDS011;33272;51.922;7.730;2023-07-24T11:37:41;2.10;;;1.90;;
47529;SDS011;33272;51.922;7.730;2023-07-24T11:40:09;3.30;;;2.60;;
47529;SDS011;33272;51.922;7.730;2023-07-24T11:42:39;2.77;;;2.57;;
47529;SDS011;33272;51.922;7.730;2023-07-24T11:45:08;3.90;;;3.50;;
47529;SDS011;33272;51.922;7.730;2023-07-24T11:47:43;4.17;;;3.50;;
47529;SDS011;33272;51.922;7.730;2023-07-24T11:50:12;4.37;;;3.63;;
47529;SDS011;33272;51.922;7.730;2023-07-24T11:52:40;5.07;;;4.03;;
47529;SDS011;33272;51.922;7.730;2023-07-24T11:55:09;4.60;;;3.90;;
47529;SDS011;33272;51.922;7.730;2023-07-24T11:57:37;4.57;;;3.80;;
47529;SDS011;33272;51.922;7.730;2023-07-24T12:00:05;4.70;;;4.30;;
47529;SDS011;33272;51.922;7.730;2023-07-24T12:02:44;4.60;;;3.67;;
47529;SDS011;33272;51.922;7.730;2023-07-24T12:05:11;4.90;;;4.43;;
47529;SDS011;33272;51.922;7.730;2023-07-24T12:07:38;4.40;;;4.00;;
47529;SDS011;33272;51.922;7.730;2023-07-24T12:10:07;4.70;;;4.20;;
47529;SDS011;33272;51.922;7.730;2023-07-24T12:12:38;7.13;;;4.50;;
47529;SDS011;33272;51.922;7.730;2023-07-24T12:15:07;4.40;;;3.90;;
47529;SDS011;33272;51.922;7.730;2023-07-24T12:17:35;4.77;;;4.27;;
47529;SDS011;33272;51.922;7.730;2023-07-24T12:20:02;4.20;;;3.90;;
47529;SDS011;33272;51.922;7.730;2023-07-24T12:22:33;5.83;;;4.50;;
47529;SDS011;33272;51.922;7.730;2023-07-24T12:25:00;5.83;;;4.30;;
47529;SDS011;33272;51.922;7.730;2023-07-24T12:27:28;5.83;;;4.60;;
47529;SDS011;33272;51.922;7.730;2023-07-24T12:29:56;4.67;;;4.23;;
47529;SDS011;33272;51.922;7.730;2023-07-24T12:32:23;3.87;;;3.57;;
47529;SDS011;33272;51.922;7.730;2023-07-24T12:34:50;4.73;;;4.33;;
47529;SDS011;33272;51.922;7.730;2023-07-24T12:37:19;4.33;;;3.93;;
47529;SDS011;33272;51.922;7.730;2023-07-24T12:39:46;4.47;;;4.07;;
47529;SDS011;33272;51.922;7.730;2023-07-24T12:42:14;4.63;;;4.03;;
47529;SDS011;33272;51.922;7.730;2023-07-24T12:44:43;4.77;;;4.27;;
47529;SDS011;33272;51.922;7.730;2023-07-24T12:47:11;4.97;;;4.47;;
47529;SDS011;33272;51.922;7.730;2023-07-24T12:49:38;4.90;;;3.93;;
47529;SDS011;33272;51.922;7.730;2023-07-24T12:52:05;4.30;;;3.20;;
47529;SDS011;33272;51.922;7.730;2023-07-24T12:54:33;3.30;;;2.73;;
47529;SDS011;33272;51.922;7.730;2023-07-24T12:57:01;3.70;;;2.70;;
47529;SDS011;33272;51.922;7.730;2023-07-24T12:59:28;2.73;;;2.37;;
47529;SDS011;33272;51.922;7.730;2023-07-24T13:01:57;2.43;;;2.23;;
47529;SDS011;33272;51.922;7.730;2023-07-24T13:04:24;5.03;;;2.53;;
47529;SDS011;33272;51.922;7.730;2023-07-24T13:06:51;4.53;;;2.17;;
47529;SDS011;33272;51.922;7.730;2023-07-24T13:09:19;3.30;;;2.50;;
47529;SDS011;33272;51.922;7.730;2023-07-24T13:11:46;4.63;;;2.53;;
47529;SDS011;33272;51.922;7.730;2023-07-24T13:14:16;3.40;;;3.03;;
47529;SDS011;33272;51.922;7.730;2023-07-24T13:16:43;3.23;;;2.77;;
47529;SDS011;33272;51.922;7.730;2023-07-24T13:19:11;3.43;;;2.60;;
47529;SDS011;33272;51.922;7.730;2023-07-24T13:21:38;4.40;;;2.73;;
47529;SDS011;33272;51.922;7.730;2023-07-24T13:24:07;3.90;;;3.07;;
47529;SDS011;33272;51.922;7.730;2023-07-24T13:26:35;3.70;;;3.10;;
47529;SDS011;33272;51.922;7.730;2023-07-24T13:29:02;4.27;;;3.10;;
47529;SDS011;33272;51.922;7.730;2023-07-24T13:31:30;5.20;;;3.30;;
47529;SDS011;33272;51.922;7.730;2023-07-24T13:33:57;4.47;;;4.07;;
47529;SDS011;33272;51.922;7.730;2023-07-24T13:36:25;4.67;;;4.20;;
47529;SDS011;33272;51.922;7.730;2023-07-24T13:38:52;5.70;;;3.50;;
47529;SDS011;33272;51.922;7.730;2023-07-24T13:41:19;4.53;;;3.40;;
47529;SDS011;33272;51.922;7.730;2023-07-24T13:43:47;3.90;;;3.47;;
47529;SDS011;33272;51.922;7.730;2023-07-24T13:46:14;2.90;;;2.60;;
47529;SDS011;33272;51.922;7.730;2023-07-24T13:48:41;3.07;;;2.77;;
47529;SDS011;33272;51.922;7.730;2023-07-24T13:51:07;3.67;;;2.60;;
47529;SDS011;33272;51.922;7.730;2023-07-24T13:53:37;3.60;;;2.57;;
47529;SDS011;33272;51.922;7.730;2023-07-24T13:56:04;3.30;;;2.87;;
47529;SDS011;33272;51.922;7.730;2023-07-24T13:58:32;2.80;;;2.47;;
47529;SDS011;33272;51.922;7.730;2023-07-24T14:00:59;3.23;;;2.93;;
47529;SDS011;33272;51.922;7.730;2023-07-24T14:03:26;3.17;;;2.87;;
47529;SDS011;33272;51.922;7.730;2023-07-24T14:05:54;4.40;;;3.40;;
47529;SDS011;33272;51.922;7.730;2023-07-24T14:08:23;4.40;;;3.23;;
47529;SDS011;33272;51.922;7.730;2023-07-24T14:10:51;3.23;;;2.93;;
47529;SDS011;33272;51.922;7.730;2023-07-24T14:13:18;3.73;;;2.60;;
47529;SDS011;33272;51.922;7.730;2023-07-24T14:15:45;3.63;;;3.17;;
47529;SDS011;33272;51.922;7.730;2023-07-24T14:18:12;4.17;;;2.60;;
47529;SDS011;33272;51.922;7.730;2023-07-24T14:20:39;3.07;;;2.60;;
47529;SDS011;33272;51.922;7.730;2023-07-24T14:23:06;3.50;;;3.20;;
47529;SDS011;33272;51.922;7.730;2023-07-24T14:25:34;3.33;;;3.03;;
47529;SDS011;33272;51.922;7.730;2023-07-24T14:28:02;4.20;;;3.60;;
47529;SDS011;33272;51.922;7.730;2023-07-24T14:30:29;4.10;;;3.40;;
47529;SDS011;33272;51.922;7.730;2023-07-24T14:32:56;3.93;;;3.37;;
47529;SDS011;33272;51.922;7.730;2023-07-24T14:35:23;4.10;;;3.67;;
47529;SDS011;33272;51.922;7.730;2023-07-24T14:37:50;3.77;;;3.40;;
47529;SDS011;33272;51.922;7.730;2023-07-24T14:40:18;4.20;;;3.13;;
47529;SDS011;33272;51.922;7.730;2023-07-24T14:42:45;4.07;;;3.20;;
47529;SDS011;33272;51.922;7.730;2023-07-24T14:45:13;3.77;;;3.40;;
47529;SDS011;33272;51.922;7.730;2023-07-24T14:47:40;4.27;;;3.87;;
47529;SDS011;33272;51.922;7.730;2023-07-24T14:50:07;3.73;;;3.33;;
47529;SDS011;33272;51.922;7.730;2023-07-24T14:52:35;3.43;;;3.13;;